If you wish to contribute or participate in the discussions about articles you are invited to join SKYbrary as a registered user

 Actions

Wattay International Airport

From SKYbrary Wiki

VLVT
Airport
ICAO: VLVT – IATA: VTE
Summary
Name Wattay International Airport
Region Asia and Pacific
Territory Laos LA.gif
Location Vientiane, Vientiane
Serving Vientiane
Elevation 171.907 m
564 ft
564 ft171.907 m
Coordinates 17° 59' 17.02" N, 102° 33' 47.02" E
Runways
Designator Length Width Surface ROPS
13/31 3000 m9,842.52 ft
45 m147.638 ft
ASP yes/yes


METAR
Observation VLVT 211230Z 06002KT 5000 BR FEW200 27/21 Q1009 NOSIG
Station Vientiane
Date/Time 21 September 2019 12:30:00
Wind direction 60°
Wind speed 02 kts
Lowest cloud amount few clouds
Temperature 27°C
Dew point 21°C
Humidity 69%
QNH 1009 hPa
Weather condition n/a

International airport serving the capital of Laos, Vientiane.

Climatology

Tropical savannah climate (Köppen climate classification Aw)

Maps

Terrain

Loading map...

Airport Layout

Loading map...


Accidents & Serious Incidents at or in vicinity of VLVT

None on SKYbrary